Main page
METAR-TAF:

METAR-TAF

Airports :

Tabriz International Airport

Tabriz, Iran

latitude: 38-05N, longitude: 046-17E, elevation: 1367 m

Current weather observation

The report was made 25 minutes ago, at 06:00 UTC
Wind 6 kt from the East/Northeast
Temperature 4°C
Humidity 56%
Pressure 1024 hPa
Visibility 10 km or more
Few clouds at a height of 500 ft
Scattered clouds at a height of 9000 ft

METAR: OITT 220600Z 06006KT 9999 FEW005 SCT090 04/M04 Q1024 A3025 NOSIG

Time: 09:55 (06:25 UTC)

Forecast

The report was made 35 minutes ago, at 05:50 UTC
Forecast valid from 22 at 06 UTC to 23 at 12 UTC
Wind 8 kt from the East
Visibility: 7000 m
Few clouds at a height of 2500 ft
Scattered clouds at a height of 9000 ft
Temporary
from 22 at 12 UTC to 22 at 19 UTC
Wind 18 kt from the East/Northeast

TAF: OITT 220550Z 2206/2312 08008KT 7000 FEW025 SCT090 TEMPO 2212/2219 06018KT

Weather observations and forecasts of more than 4000 airports (METAR and TAF reports).

The available stations are represented by yellow and red dots on the map.

Hover mouse over dot to see the name of the station.

Then click to see weather observations and forecasts.

To change the map : click on the green buttons with a black cross to zoom in, on the green button with a dash to zoom out, or on the green arrows for adjacent maps.


METAR-TAF: